Time;durP1;ratioP1;P1;durP2;ratioP2;P2;SDS_P1;SDS_P2;PMS_P1;PMS_P2;Temp;Humidity;BMP_temperature;BMP_pressure;BME280_temperature;BME280_humidity;BME280_pressure;Samples;Min_cycle;Max_cycle;Signal;HPM_P1;HPM_P2
2021/05/16 00:00:55;;;;;;;5.07;4.10;;;11.40;99.90;;;;;;5101129;28;20027;-39
2021/05/16 00:03:21;;;;;;;4.20;3.75;;;11.40;99.90;;;;;;5103375;28;20469;-37
2021/05/16 00:05:47;;;;;;;5.20;4.10;;;11.50;99.90;;;;;;5103179;28;20032;-39
2021/05/16 00:08:13;;;;;;;6.93;4.35;;;11.50;99.90;;;;;;5100259;28;20431;-39
2021/05/16 00:10:40;;;;;;;6.03;4.13;;;11.60;99.90;;;;;;5106854;28;20050;-37
2021/05/16 00:13:05;;;;;;;6.00;4.78;;;11.60;99.90;;;;;;5097614;28;20101;-38
2021/05/16 00:15:32;;;;;;;5.57;4.57;;;11.60;99.90;;;;;;5106683;28;20039;-38
2021/05/16 00:17:58;;;;;;;7.57;5.50;;;11.70;99.90;;;;;;5096570;28;20023;-38
2021/05/16 00:20:30;;;;;;;8.73;5.40;;;11.60;99.90;;;;;;5108340;28;20131;-38
2021/05/16 00:22:56;;;;;;;7.68;4.65;;;11.70;99.90;;;;;;5096095;28;20401;-42
2021/05/16 00:25:23;;;;;;;7.00;5.25;;;11.70;99.90;;;;;;5108601;28;20043;-38
2021/05/16 00:27:49;;;;;;;8.38;5.22;;;11.70;99.90;;;;;;5093787;28;20122;-40
2021/05/16 00:30:18;;;;;;;8.55;5.55;;;11.70;99.90;;;;;;5108017;28;20099;-40
2021/05/16 00:32:44;;;;;;;11.85;5.30;;;11.70;99.90;;;;;;5094969;28;20016;-36
2021/05/16 00:35:13;;;;;;;7.35;5.57;;;11.70;99.90;;;;;;5108095;28;20031;-37
2021/05/16 00:37:38;;;;;;;7.45;5.43;;;11.60;99.90;;;;;;5097397;28;20356;-39
2021/05/16 00:40:06;;;;;;;10.60;5.50;;;11.60;99.90;;;;;;5106964;28;20031;-38
2021/05/16 00:42:31;;;;;;;10.48;6.00;;;11.70;99.90;;;;;;5098086;28;20032;-38
2021/05/16 00:44:58;;;;;;;11.07;5.10;;;11.70;99.90;;;;;;5104471;28;20454;-38
2021/05/16 00:47:23;;;;;;;13.18;5.43;;;11.70;99.90;;;;;;5101677;28;20024;-38
2021/05/16 00:49:49;;;;;;;8.30;5.28;;;11.70;99.90;;;;;;5090708;28;20263;-36
2021/05/16 00:52:15;;;;;;;8.13;5.45;;;11.70;99.90;;;;;;5091423;28;20028;-36
2021/05/16 00:54:40;;;;;;;9.30;5.10;;;11.70;99.90;;;;;;5095797;28;20016;-39
2021/05/16 00:57:06;;;;;;;11.15;5.00;;;11.70;99.90;;;;;;5088395;28;20031;-39
2021/05/16 00:59:32;;;;;;;9.65;4.65;;;11.70;99.90;;;;;;5098180;28;20016;-38
2021/05/16 01:01:58;;;;;;;10.40;4.93;;;11.80;99.90;;;;;;5089169;28;20032;-38
2021/05/16 01:04:23;;;;;;;9.50;5.05;;;11.80;99.90;;;;;;5098320;28;20035;-36
2021/05/16 01:06:49;;;;;;;11.57;5.28;;;11.80;99.90;;;;;;5086606;28;20475;-36
2021/05/16 01:09:14;;;;;;;10.80;5.10;;;11.80;99.90;;;;;;5100105;28;20012;-38
2021/05/16 01:11:45;;;;;;;12.52;5.85;;;11.70;99.90;;;;;;5086484;28;20028;-39
2021/05/16 01:14:20;;;;;;;9.30;5.00;;;11.70;99.90;;;;;;5100105;28;20054;-39
2021/05/16 01:16:46;;;;;;;12.57;5.88;;;11.70;99.90;;;;;;5086350;28;20032;-39
2021/05/16 01:19:11;;;;;;;12.73;6.38;;;11.70;99.90;;;;;;5099076;28;20072;-39
2021/05/16 01:21:41;;;;;;;13.30;6.22;;;11.70;99.90;;;;;;5086688;28;20105;-39
2021/05/16 01:24:16;;;;;;;14.15;6.15;;;11.60;99.90;;;;;;5096752;28;20046;-40
2021/05/16 01:26:44;;;;;;;15.18;5.95;;;11.50;99.90;;;;;;5087155;28;20490;-37
2021/05/16 01:29:10;;;;;;;14.00;5.85;;;11.50;99.90;;;;;;5095997;28;20023;-38
2021/05/16 01:31:36;;;;;;;12.48;5.88;;;11.50;99.90;;;;;;5089334;28;20055;-39
2021/05/16 01:34:02;;;;;;;10.90;4.82;;;11.50;99.90;;;;;;5093257;28;20095;-35
2021/05/16 01:36:27;;;;;;;10.57;5.40;;;11.60;99.90;;;;;;5092263;28;20206;-39
2021/05/16 01:38:53;;;;;;;13.45;5.18;;;11.60;99.90;;;;;;5090261;28;20184;-38
2021/05/16 01:41:21;;;;;;;13.52;6.03;;;11.60;99.90;;;;;;5094976;28;20042;-38
2021/05/16 01:43:48;;;;;;;10.88;5.20;;;11.60;99.90;;;;;;5087235;28;20538;-38
2021/05/16 01:46:17;;;;;;;17.25;6.32;;;11.50;99.90;;;;;;5097022;28;20495;-37
2021/05/16 01:48:42;;;;;;;16.75;5.72;;;11.50;99.90;;;;;;5087282;28;20127;-38
2021/05/16 01:51:09;;;;;;;18.27;5.72;;;11.50;99.90;;;;;;5097870;28;20194;-38
2021/05/16 01:53:41;;;;;;;14.90;5.22;;;11.50;99.90;;;;;;5087040;28;20070;-37
2021/05/16 01:56:08;;;;;;;17.27;5.82;;;11.50;99.90;;;;;;5103348;28;20030;-39
2021/05/16 01:58:35;;;;;;;14.13;6.00;;;11.50;99.90;;;;;;5106606;28;20023;-37
2021/05/16 02:01:04;;;;;;;17.95;6.30;;;11.50;99.90;;;;;;5094591;28;20039;-38
2021/05/16 02:03:30;;;;;;;15.60;5.90;;;11.50;99.90;;;;;;5106454;28;20122;-38
2021/05/16 02:05:56;;;;;;;18.02;5.90;;;11.50;99.90;;;;;;5092893;28;20020;-35
2021/05/16 02:08:23;;;;;;;11.77;4.90;;;11.50;99.90;;;;;;5106086;28;20462;-39
2021/05/16 02:10:48;;;;;;;15.40;5.70;;;11.50;99.90;;;;;;5094752;28;20422;-39
2021/05/16 02:13:14;;;;;;;15.82;6.10;;;11.50;99.90;;;;;;5105265;28;20026;-38
2021/05/16 02:15:40;;;;;;;19.45;6.60;;;11.50;99.90;;;;;;5096809;28;20027;-39
2021/05/16 02:18:08;;;;;;;17.42;7.55;;;11.50;99.90;;;;;;5102944;28;20378;-40
2021/05/16 02:20:34;;;;;;;16.40;5.90;;;11.50;99.90;;;;;;5098563;28;20024;-37
2021/05/16 02:22:59;;;;;;;17.88;6.45;;;11.50;99.90;;;;;;5100058;28;20032;-37
2021/05/16 02:25:26;;;;;;;18.05;6.53;;;11.50;99.90;;;;;;5102264;28;20023;-34
2021/05/16 02:27:51;;;;;;;18.08;6.85;;;11.50;99.90;;;;;;5097078;28;20379;-39
2021/05/16 02:30:18;;;;;;;16.42;6.43;;;11.50;99.90;;;;;;5104901;28;20526;-39
2021/05/16 02:32:44;;;;;;;20.52;6.40;;;11.50;99.90;;;;;;5094632;28;20118;-39
2021/05/16 02:35:13;;;;;;;17.58;6.75;;;11.50;99.90;;;;;;5104329;28;20577;-39
2021/05/16 02:37:39;;;;;;;21.48;7.22;;;11.50;99.90;;;;;;5094955;28;20083;-38
2021/05/16 02:40:05;;;;;;;15.82;5.97;;;11.50;99.90;;;;;;5105314;28;20051;-39
2021/05/16 02:42:31;;;;;;;21.50;6.22;;;11.50;99.90;;;;;;5093493;28;20035;-39
2021/05/16 02:44:57;;;;;;;14.65;5.60;;;11.50;99.90;;;;;;5106060;28;20035;-39
2021/05/16 02:47:25;;;;;;;19.17;6.18;;;11.50;99.90;;;;;;5092916;28;20020;-39
2021/05/16 02:49:51;;;;;;;21.33;6.00;;;11.50;99.90;;;;;;5097442;28;20020;-39
2021/05/16 02:52:20;;;;;;;15.80;5.50;;;11.60;99.90;;;;;;5102512;28;20031;-39
2021/05/16 02:54:47;;;;;;;17.38;5.53;;;11.60;99.90;;;;;;5089655;28;20028;-39
2021/05/16 02:57:12;;;;;;;17.35;6.93;;;11.50;99.90;;;;;;5093784;28;20035;-39
2021/05/16 02:59:38;;;;;;;16.15;6.93;;;11.50;99.90;;;;;;5107539;28;20024;-39
2021/05/16 03:02:04;;;;;;;20.20;6.60;;;11.50;99.90;;;;;;5101797;28;20456;-38
2021/05/16 03:04:29;;;;;;;21.80;7.35;;;11.50;99.90;;;;;;5104846;28;20114;-40
2021/05/16 03:06:56;;;;;;;16.65;6.97;;;11.50;99.90;;;;;;5104503;28;20132;-38
2021/05/16 03:09:22;;;;;;;14.80;6.18;;;11.40;99.90;;;;;;5102062;28;20019;-39
2021/05/16 03:11:47;;;;;;;19.23;5.90;;;11.40;99.90;;;;;;5106323;28;20031;-39
2021/05/16 03:14:13;;;;;;;14.43;5.93;;;11.50;99.90;;;;;;5099892;28;20106;-39
2021/05/16 03:16:39;;;;;;;15.75;6.15;;;11.50;99.90;;;;;;5107926;28;20020;-38
2021/05/16 03:19:05;;;;;;;18.88;6.57;;;11.50;99.90;;;;;;5097514;28;20020;-38
2021/05/16 03:21:31;;;;;;;14.93;5.80;;;11.50;99.90;;;;;;5108157;28;20049;-39
2021/05/16 03:23:56;;;;;;;21.23;5.78;;;11.40;99.90;;;;;;5097777;28;20030;-39
2021/05/16 03:26:23;;;;;;;14.25;5.88;;;11.50;99.90;;;;;;5109898;28;20118;-39
2021/05/16 03:28:49;;;;;;;16.73;5.82;;;11.50;99.90;;;;;;5096281;28;20022;-39
2021/05/16 03:31:18;;;;;;;15.30;5.05;;;11.40;99.90;;;;;;5109250;28;20106;-38
2021/05/16 03:33:49;;;;;;;16.30;5.07;;;11.50;99.90;;;;;;5095596;28;20102;-37
2021/05/16 03:36:15;;;;;;;17.40;5.05;;;11.40;99.90;;;;;;5110008;28;20031;-39
2021/05/16 03:38:40;;;;;;;13.77;5.00;;;11.50;99.90;;;;;;5097035;28;20027;-41
2021/05/16 03:41:06;;;;;;;14.80;5.20;;;11.50;99.90;;;;;;5107979;28;20028;-38
2021/05/16 03:43:32;;;;;;;21.00;6.13;;;11.50;99.90;;;;;;5100069;28;20024;-39
2021/05/16 03:45:57;;;;;;;21.00;6.82;;;11.50;99.90;;;;;;5103962;28;20072;-38
2021/05/16 03:48:23;;;;;;;17.98;5.90;;;11.50;99.90;;;;;;5103720;28;20012;-39
2021/05/16 03:50:48;;;;;;;15.27;5.75;;;11.50;99.90;;;;;;5103690;28;20059;-38
2021/05/16 03:53:14;;;;;;;19.92;6.80;;;11.50;99.90;;;;;;5105624;28;20132;-38
2021/05/16 03:55:39;;;;;;;19.58;6.82;;;11.50;99.90;;;;;;5099580;28;20020;-39
2021/05/16 03:58:05;;;;;;;17.80;6.47;;;11.50;99.90;;;;;;5106903;28;20038;-39
2021/05/16 04:00:30;;;;;;;14.93;5.75;;;11.50;99.90;;;;;;5097017;28;20067;-38
2021/05/16 04:02:56;;;;;;;14.98;5.38;;;11.40;99.90;;;;;;5106353;28;20020;-39
2021/05/16 04:05:21;;;;;;;15.15;5.60;;;11.40;99.90;;;;;;5097184;28;20492;-39
2021/05/16 04:07:48;;;;;;;16.30;6.13;;;11.50;99.90;;;;;;5108306;28;20207;-40
2021/05/16 04:10:14;;;;;;;12.98;5.15;;;11.50;99.90;;;;;;5095690;28;20028;-40
2021/05/16 04:12:40;;;;;;;19.35;7.22;;;11.50;99.90;;;;;;5108559;28;20027;-39
2021/05/16 04:15:06;;;;;;;22.85;7.35;;;11.50;99.90;;;;;;5095295;28;20024;-39
2021/05/16 04:17:32;;;;;;;25.50;7.68;;;11.40;99.90;;;;;;5109132;28;20020;-39
2021/05/16 04:19:58;;;;;;;27.98;8.32;;;11.50;99.90;;;;;;5098026;28;20043;-38
2021/05/16 04:22:23;;;;;;;20.27;8.15;;;11.50;99.90;;;;;;5106304;28;20039;-40
2021/05/16 04:24:52;;;;;;;19.05;7.93;;;11.50;99.90;;;;;;5100237;28;20016;-39
2021/05/16 04:27:18;;;;;;;20.77;7.70;;;11.50;99.90;;;;;;5103506;28;20023;-38
2021/05/16 04:29:44;;;;;;;24.27;8.02;;;11.50;99.90;;;;;;5102465;28;20020;-40
2021/05/16 04:32:10;;;;;;;22.92;8.77;;;11.50;99.90;;;;;;5101384;28;20412;-40
2021/05/16 04:34:36;;;;;;;22.23;8.55;;;11.50;99.90;;;;;;5104515;28;20031;-40
2021/05/16 04:37:01;;;;;;;22.98;8.25;;;11.50;99.90;;;;;;5098369;28;20051;-39
2021/05/16 04:39:27;;;;;;;23.15;9.35;;;11.50;99.90;;;;;;5106517;28;20028;-37
2021/05/16 04:41:52;;;;;;;23.25;8.93;;;11.50;99.90;;;;;;5096082;28;20027;-37
2021/05/16 04:44:18;;;;;;;15.20;7.00;;;11.50;99.90;;;;;;5107090;28;20072;-33
2021/05/16 04:46:43;;;;;;;30.33;10.55;;;11.50;99.90;;;;;;5095647;28;20324;-38
2021/05/16 04:49:09;;;;;;;26.80;9.65;;;11.50;99.90;;;;;;5107083;28;20443;-39
2021/05/16 04:51:35;;;;;;;27.38;10.18;;;11.50;99.90;;;;;;5100275;28;20309;-38
2021/05/16 04:54:00;;;;;;;23.90;9.55;;;11.50;99.90;;;;;;5087702;28;20020;-37
2021/05/16 04:56:27;;;;;;;21.70;9.43;;;11.40;99.90;;;;;;5099627;28;20028;-39
2021/05/16 04:58:53;;;;;;;20.45;8.77;;;11.40;99.90;;;;;;5086730;28;20024;-38
2021/05/16 05:01:21;;;;;;;28.02;11.10;;;11.50;99.90;;;;;;5096778;28;20050;-38
2021/05/16 05:03:46;;;;;;;26.80;9.45;;;11.50;99.90;;;;;;5089352;28;20467;-44
2021/05/16 05:06:12;;;;;;;25.60;9.98;;;11.50;99.90;;;;;;5094575;28;20144;-37
2021/05/16 05:08:38;;;;;;;22.45;9.70;;;11.50;99.90;;;;;;5092152;28;20055;-39
2021/05/16 05:11:03;;;;;;;21.23;9.63;;;11.50;99.90;;;;;;5091114;28;20015;-38
2021/05/16 05:13:29;;;;;;;20.65;8.88;;;11.50;99.90;;;;;;5094565;28;20054;-37
2021/05/16 05:15:55;;;;;;;27.38;9.75;;;11.50;99.90;;;;;;5088852;28;20141;-39
2021/05/16 05:18:20;;;;;;;23.92;9.25;;;11.50;99.90;;;;;;5105762;28;20570;-38
2021/05/16 05:20:46;;;;;;;19.60;8.77;;;11.50;99.90;;;;;;5103767;28;20052;-37
2021/05/16 05:23:12;;;;;;;27.65;10.35;;;11.50;99.90;;;;;;5093910;28;20016;-39
2021/05/16 05:25:38;;;;;;;25.98;10.60;;;11.60;99.90;;;;;;5103952;28;20721;-38
2021/05/16 05:28:04;;;;;;;24.23;9.20;;;11.60;99.90;;;;;;5093319;28;20149;-40
2021/05/16 05:30:30;;;;;;;27.42;9.85;;;11.60;99.90;;;;;;5105125;28;20027;-40
2021/05/16 05:32:55;;;;;;;23.83;9.85;;;11.60;99.90;;;;;;5092394;28;20016;-36
2021/05/16 05:35:21;;;;;;;19.75;9.07;;;11.60;99.90;;;;;;5105920;28;20031;-38
2021/05/16 05:37:47;;;;;;;20.15;8.00;;;11.60;99.90;;;;;;5093656;28;20095;-37
2021/05/16 05:40:13;;;;;;;20.80;8.60;;;11.60;99.90;;;;;;5106785;28;20454;-37
2021/05/16 05:42:40;;;;;;;24.92;10.07;;;11.60;99.90;;;;;;5096739;28;20036;-36
2021/05/16 05:45:08;;;;;;;20.70;8.88;;;11.60;99.90;;;;;;5104176;28;20046;-39
2021/05/16 05:47:34;;;;;;;24.20;11.02;;;11.60;99.90;;;;;;5099313;28;20095;-39
2021/05/16 05:50:00;;;;;;;29.38;11.25;;;11.60;99.90;;;;;;5093909;28;20020;-39
2021/05/16 05:52:25;;;;;;;28.75;10.85;;;11.60;99.90;;;;;;5091078;28;20032;-38
2021/05/16 05:54:51;;;;;;;23.73;10.25;;;11.60;99.90;;;;;;5094181;28;20067;-35
2021/05/16 05:57:19;;;;;;;18.50;9.40;;;11.60;99.90;;;;;;5088229;28;20075;-39
2021/05/16 05:59:45;;;;;;;23.75;10.40;;;11.60;99.90;;;;;;5095879;28;20041;-40
2021/05/16 06:02:13;;;;;;;26.42;11.00;;;11.70;99.90;;;;;;5087694;28;20020;-39
2021/05/16 06:04:38;;;;;;;31.20;12.20;;;11.70;99.90;;;;;;5097283;28;20082;-37
2021/05/16 06:07:04;;;;;;;25.70;11.05;;;11.70;99.90;;;;;;5086715;28;20052;-39
2021/05/16 06:09:32;;;;;;;28.13;11.13;;;11.70;99.90;;;;;;5097648;28;20107;-39
2021/05/16 06:11:57;;;;;;;28.60;11.30;;;11.70;99.90;;;;;;5085485;28;20028;-39
2021/05/16 06:14:23;;;;;;;24.00;11.52;;;11.80;99.90;;;;;;5098516;28;20023;-37
2021/05/16 06:16:48;;;;;;;28.63;12.27;;;11.80;99.90;;;;;;5085624;28;20034;-39
2021/05/16 06:19:14;;;;;;;27.13;12.90;;;11.90;99.90;;;;;;5098464;28;20063;-40
2021/05/16 06:21:39;;;;;;;33.92;13.85;;;11.90;99.90;;;;;;5085664;28;20043;-38
2021/05/16 06:24:07;;;;;;;34.15;13.13;;;12.00;99.90;;;;;;5089661;28;20016;-39
2021/05/16 06:26:38;;;;;;;25.88;12.23;;;12.00;99.90;;;;;;5102990;28;20063;-39
2021/05/16 06:29:07;;;;;;;27.52;13.18;;;12.00;99.90;;;;;;5097652;28;20009;-39
2021/05/16 06:31:33;;;;;;;24.90;12.32;;;12.00;99.90;;;;;;5102448;28;20024;-38
2021/05/16 06:33:59;;;;;;;29.35;11.88;;;12.10;99.90;;;;;;5098997;28;20027;-38
2021/05/16 06:36:25;;;;;;;30.88;13.45;;;12.20;99.90;;;;;;5099734;28;20020;-39
2021/05/16 06:38:54;;;;;;;26.77;12.70;;;12.20;99.90;;;;;;5101455;28;20041;-39
2021/05/16 06:41:21;;;;;;;28.30;11.40;;;12.20;99.90;;;;;;5097552;28;20236;-39
2021/05/16 06:43:47;;;;;;;23.65;10.85;;;12.30;99.90;;;;;;5103816;28;20022;-39
2021/05/16 06:46:13;;;;;;;28.77;13.35;;;12.40;99.90;;;;;;5095001;28;20036;-39
2021/05/16 06:48:39;;;;;;;21.95;10.20;;;12.40;99.90;;;;;;5103603;28;20027;-39
2021/05/16 06:51:05;;;;;;;23.10;10.35;;;12.50;99.90;;;;;;5102783;28;20340;-39
2021/05/16 06:53:31;;;;;;;32.33;11.43;;;12.60;99.90;;;;;;5100678;28;20034;-39
2021/05/16 06:55:57;;;;;;;20.33;9.25;;;12.60;99.90;;;;;;5097233;28;20095;-38
2021/05/16 06:58:26;;;;;;;20.40;8.98;;;12.70;99.90;;;;;;5085147;28;20103;-38
2021/05/16 07:00:52;;;;;;;24.35;9.95;;;12.70;99.90;;;;;;5090429;28;20147;-34
2021/05/16 07:03:17;;;;;;;24.00;9.82;;;12.80;99.90;;;;;;5105534;28;20103;-36
2021/05/16 07:05:43;;;;;;;23.63;9.73;;;12.90;99.90;;;;;;5092968;28;20036;-37
2021/05/16 07:08:09;;;;;;;21.13;9.13;;;12.90;99.90;;;;;;5104748;28;20116;-37
2021/05/16 07:10:34;;;;;;;17.50;9.18;;;13.00;99.90;;;;;;5095322;28;20447;-37
2021/05/16 07:13:00;;;;;;;17.42;9.40;;;13.10;99.90;;;;;;5101774;28;20027;-39
2021/05/16 07:15:26;;;;;;;17.80;9.50;;;13.20;99.90;;;;;;5098582;28;20024;-37
2021/05/16 07:17:52;;;;;;;19.75;9.02;;;13.30;99.90;;;;;;5098231;28;20347;-39
2021/05/16 07:20:18;;;;;;;23.95;10.30;;;13.30;99.90;;;;;;5101035;28;20523;-36
2021/05/16 07:22:43;;;;;;;23.58;10.10;;;13.40;99.90;;;;;;5096066;28;20038;-38
2021/05/16 07:25:13;;;;;;;21.63;9.75;;;13.50;99.70;;;;;;5102591;28;20423;-37
2021/05/16 07:27:39;;;;;;;25.40;9.38;;;13.50;99.70;;;;;;5093696;28;20039;-38
2021/05/16 07:30:06;;;;;;;22.38;9.82;;;13.60;99.50;;;;;;5103557;28;20490;-39
2021/05/16 07:32:32;;;;;;;17.73;9.35;;;13.60;99.50;;;;;;5099532;28;20027;-43
2021/05/16 07:34:57;;;;;;;19.30;9.05;;;13.60;99.50;;;;;;5103143;28;20511;-37
2021/05/16 07:37:23;;;;;;;17.65;8.15;;;13.60;99.50;;;;;;5093145;28;20036;-38
2021/05/16 07:39:49;;;;;;;17.08;8.32;;;13.70;99.40;;;;;;5106594;28;20525;-38
2021/05/16 07:42:14;;;;;;;20.15;9.00;;;13.60;99.10;;;;;;5094738;28;20035;-38
2021/05/16 07:44:40;;;;;;;22.10;8.57;;;13.60;99.00;;;;;;5106662;28;20111;-39
2021/05/16 07:47:08;;;;;;;20.50;7.75;;;13.50;99.20;;;;;;5094551;28;20063;-39
2021/05/16 07:49:34;;;;;;;18.17;7.45;;;13.40;99.10;;;;;;5105091;28;20046;-37
2021/05/16 07:51:59;;;;;;;18.65;6.80;;;13.30;99.20;;;;;;5097626;28;20852;-40
2021/05/16 07:54:25;;;;;;;17.90;7.97;;;13.30;99.40;;;;;;5100226;28;20374;-39
2021/05/16 07:56:51;;;;;;;24.38;7.90;;;13.20;99.30;;;;;;5107428;28;20207;-40
2021/05/16 07:59:16;;;;;;;19.77;8.07;;;13.10;99.40;;;;;;5108570;28;20024;-42
2021/05/16 08:01:45;;;;;;;19.75;9.80;;;13.10;99.50;;;;;;5104494;28;20032;-40
2021/05/16 08:04:10;;;;;;;21.25;9.30;;;13.10;99.30;;;;;;5108668;28;20020;-40
2021/05/16 08:06:36;;;;;;;23.55;10.32;;;13.10;99.60;;;;;;5104466;28;20055;-38
2021/05/16 08:09:02;;;;;;;26.08;11.88;;;13.30;99.30;;;;;;5096386;28;20020;-38
2021/05/16 08:11:28;;;;;;;18.92;10.65;;;13.40;99.00;;;;;;5089241;28;20027;-37
2021/05/16 08:13:53;;;;;;;23.63;11.68;;;13.60;99.00;;;;;;5097690;28;20061;-40
2021/05/16 08:16:19;;;;;;;24.25;12.20;;;13.70;98.60;;;;;;5088214;28;20066;-39
2021/05/16 08:18:46;;;;;;;20.83;10.88;;;13.80;98.60;;;;;;5099023;28;20063;-39
2021/05/16 08:21:12;;;;;;;22.85;11.57;;;13.90;98.20;;;;;;5087844;28;20405;-39
2021/05/16 08:23:37;;;;;;;20.50;11.00;;;14.00;98.10;;;;;;5100534;28;20027;-40
2021/05/16 08:26:03;;;;;;;23.83;10.63;;;14.10;97.80;;;;;;5095040;28;20430;-38
2021/05/16 08:28:29;;;;;;;17.85;11.13;;;14.20;97.70;;;;;;5095230;28;20012;-40
2021/05/16 08:30:54;;;;;;;21.17;11.13;;;14.20;97.20;;;;;;5107470;28;20020;-38
2021/05/16 08:33:20;;;;;;;25.35;11.40;;;14.20;97.30;;;;;;5098110;28;20059;-39
2021/05/16 08:35:46;;;;;;;25.05;12.18;;;14.10;97.20;;;;;;5103716;28;20134;-40
2021/05/16 08:38:12;;;;;;;24.73;12.70;;;14.00;96.90;;;;;;5104587;28;20024;-40
2021/05/16 08:40:38;;;;;;;21.40;12.65;;;13.90;97.10;;;;;;5093068;28;20051;-38
2021/05/16 08:43:04;;;;;;;21.80;11.60;;;13.90;97.20;;;;;;5091682;28;20899;-39
2021/05/16 08:45:31;;;;;;;21.92;11.35;;;13.90;97.50;;;;;;5102185;28;20095;-39
2021/05/16 08:47:56;;;;;;;19.25;10.13;;;14.00;97.50;;;;;;5105189;28;20035;-39
2021/05/16 08:50:23;;;;;;;24.48;11.90;;;14.10;97.50;;;;;;5088906;28;20024;-39
2021/05/16 08:52:49;;;;;;;24.08;11.52;;;14.30;97.50;;;;;;5096508;28;20047;-39
2021/05/16 08:55:15;;;;;;;25.25;11.82;;;14.40;97.30;;;;;;5105154;28;20502;-40
2021/05/16 08:57:44;;;;;;;25.42;11.35;;;14.50;97.00;;;;;;5107898;28;20084;-43
2021/05/16 09:00:14;;;;;;;21.00;11.18;;;14.60;96.90;;;;;;5098876;28;20064;-40
2021/05/16 09:03:08;;;;;;;24.30;12.13;;;14.70;96.90;;;;;;5086028;28;20052;-40
2021/05/16 09:05:37;;;;;;;22.13;11.05;;;14.80;96.10;;;;;;5105538;28;20020;-37
2021/05/16 09:08:16;;;;;;;20.83;10.32;;;14.90;96.20;;;;;;5106014;28;20043;-36
2021/05/16 09:10:43;;;;;;;20.05;10.18;;;15.10;96.10;;;;;;5102804;28;20111;-37
2021/05/16 09:13:21;;;;;;;20.90;10.50;;;15.20;96.10;;;;;;5103348;28;20015;-38
2021/05/16 09:16:09;;;;;;;23.17;10.85;;;15.30;95.40;;;;;;5094911;28;20018;-37
2021/05/16 09:18:56;;;;;;;22.30;9.80;;;15.30;95.10;;;;;;5105760;28;20401;-38
2021/05/16 09:21:49;;;;;;;22.83;9.43;;;15.30;94.90;;;;;;5096512;28;20059;-39
2021/05/16 09:24:15;;;;;;;18.02;8.68;;;15.30;94.10;;;;;;5104965;28;20175;-38
2021/05/16 09:26:58;;;;;;;20.85;9.27;;;15.40;94.30;;;;;;5103007;28;20100;-40
2021/05/16 09:29:44;;;;;;;22.38;9.48;;;15.40;94.00;;;;;;5104746;28;20072;-40
2021/05/16 09:32:09;;;;;;;20.48;8.90;;;15.30;94.50;;;;;;5105107;28;20051;-39
2021/05/16 09:34:35;;;;;;;18.70;10.10;;;15.30;94.60;;;;;;5106588;28;20058;-38
2021/05/16 09:37:01;;;;;;;20.60;9.93;;;15.30;94.80;;;;;;5106287;28;20027;-40
2021/05/16 09:39:29;;;;;;;19.85;10.00;;;15.30;94.30;;;;;;5104400;28;20023;-39
2021/05/16 09:41:59;;;;;;;17.63;8.68;;;15.40;94.20;;;;;;5098063;28;20020;-41
2021/05/16 09:44:35;;;;;;;19.30;7.95;;;15.50;94.40;;;;;;5088024;28;20066;-39
2021/05/16 09:47:26;;;;;;;15.38;8.18;;;15.70;94.10;;;;;;5097952;28;20035;-40
2021/05/16 09:49:57;;;;;;;17.65;9.20;;;15.80;93.50;;;;;;5086540;28;20482;-40
2021/05/16 09:52:30;;;;;;;21.83;9.30;;;16.00;93.40;;;;;;5073558;28;20608;-39
2021/05/16 09:55:14;;;;;;;17.35;9.48;;;16.10;93.60;;;;;;5088882;28;20455;-40
2021/05/16 09:57:42;;;;;;;16.02;8.10;;;16.30;93.10;;;;;;5096392;28;20016;-40
2021/05/16 10:00:10;;;;;;;17.83;8.68;;;16.50;92.80;;;;;;5103536;28;20517;-39
2021/05/16 10:02:37;;;;;;;17.55;7.63;;;16.60;92.50;;;;;;5098760;28;20605;-40
2021/05/16 10:05:06;;;;;;;15.50;7.07;;;16.80;91.70;;;;;;5105473;28;20027;-39
2021/05/16 10:07:32;;;;;;;15.38;6.05;;;16.90;92.10;;;;;;5103597;28;20036;-37
2021/05/16 10:09:59;;;;;;;16.88;6.70;;;16.90;90.70;;;;;;5106450;28;20135;-40
2021/05/16 10:12:25;;;;;;;10.70;5.03;;;16.90;90.80;;;;;;5098907;28;20408;-41
2021/05/16 10:15:06;;;;;;;15.73;5.35;;;16.80;91.20;;;;;;5086420;28;20368;-40
2021/05/16 10:17:35;;;;;;;12.00;4.82;;;16.70;90.40;;;;;;5098839;28;20067;-40
2021/05/16 10:20:11;;;;;;;13.20;4.15;;;16.60;90.50;;;;;;5086539;28;20035;-41
2021/05/16 10:22:38;;;;;;;12.73;4.30;;;16.60;91.00;;;;;;5099430;28;20020;-39
2021/05/16 10:25:05;;;;;;;11.38;4.07;;;16.60;91.20;;;;;;5086418;28;20028;-38
2021/05/16 10:27:42;;;;;;;9.75;4.18;;;16.70;91.40;;;;;;5098439;28;20031;-37
2021/05/16 10:30:12;;;;;;;11.43;3.63;;;16.80;91.30;;;;;;5085993;28;20548;-39
2021/05/16 10:32:47;;;;;;;8.73;3.65;;;16.90;91.10;;;;;;5090311;28;20027;-39
2021/05/16 10:35:14;;;;;;;11.63;3.83;;;16.90;90.90;;;;;;5085746;28;20444;-40
2021/05/16 10:37:41;;;;;;;13.70;3.95;;;16.90;91.00;;;;;;5089693;28;20032;-40
2021/05/16 10:40:13;;;;;;;11.32;3.17;;;16.80;91.00;;;;;;5104365;28;20600;-39
2021/05/16 10:42:40;;;;;;;12.07;3.95;;;16.70;91.40;;;;;;5096996;28;20100;-40
2021/05/16 10:45:15;;;;;;;9.38;3.25;;;16.70;91.10;;;;;;5103523;28;20077;-38
2021/05/16 10:47:52;;;;;;;11.15;3.50;;;16.70;90.80;;;;;;5097205;28;20020;-38
2021/05/16 10:50:24;;;;;;;11.25;2.95;;;16.80;90.50;;;;;;5097422;28;20036;-38
2021/05/16 10:53:04;;;;;;;8.27;2.65;;;16.90;90.80;;;;;;5097089;28;20028;-40
2021/05/16 10:55:43;;;;;;;12.30;3.53;;;17.10;90.90;;;;;;5102384;28;20027;-37
2021/05/16 10:58:38;;;;;;;7.82;2.80;;;17.10;90.40;;;;;;5101619;28;20120;-40
2021/05/16 11:01:10;;;;;;;10.20;3.60;;;17.10;90.60;;;;;;5102143;28;20062;-39
2021/05/16 11:03:47;;;;;;;9.25;2.72;;;17.20;90.00;;;;;;5102492;28;20072;-41
2021/05/16 11:06:20;;;;;;;8.85;2.78;;;17.10;90.10;;;;;;5105047;28;20027;-40
2021/05/16 11:08:45;;;;;;;7.88;2.50;;;17.10;90.40;;;;;;5093441;28;20390;-40
2021/05/16 11:11:31;;;;;;;10.35;3.35;;;17.20;90.50;;;;;;5105813;28;20035;-37
2021/05/16 11:13:57;;;;;;;11.35;3.38;;;17.30;90.00;;;;;;5109354;28;20115;-39
2021/05/16 11:16:22;;;;;;;10.65;3.63;;;17.40;90.30;;;;;;5109540;28;20123;-40
2021/05/16 11:18:48;;;;;;;8.35;3.05;;;17.50;90.00;;;;;;5105769;28;20024;-40
2021/05/16 11:21:14;;;;;;;10.07;3.40;;;17.60;89.90;;;;;;5109688;28;20488;-40
2021/05/16 11:23:44;;;;;;;10.38;3.30;;;17.60;89.90;;;;;;5107477;28;20624;-38
2021/05/16 11:26:14;;;;;;;10.85;3.05;;;17.60;87.80;;;;;;5109845;28;20016;-37
2021/05/16 11:28:49;;;;;;;13.77;3.83;;;17.60;88.50;;;;;;5104264;28;20043;-39
2021/05/16 11:31:21;;;;;;;9.10;2.90;;;17.50;88.70;;;;;;5103017;28;20035;-39
2021/05/16 11:33:51;;;;;;;10.40;2.97;;;17.50;88.80;;;;;;5104448;28;20471;-40
2021/05/16 11:36:23;;;;;;;9.75;3.28;;;17.40;87.70;;;;;;5095799;28;20020;-41
2021/05/16 11:38:58;;;;;;;13.68;3.50;;;17.20;88.60;;;;;;5091445;28;20127;-37
2021/05/16 11:41:23;;;;;;;8.68;3.08;;;17.00;90.40;;;;;;5108066;28;20088;-40
2021/05/16 11:43:49;;;;;;;7.70;3.20;;;16.70;90.80;;;;;;5105661;28;20245;-39
2021/05/16 11:46:14;;;;;;;14.45;3.72;;;16.40;91.10;;;;;;5108243;28;20023;-42
2021/05/16 11:48:41;;;;;;;11.98;3.33;;;16.00;91.00;;;;;;5106603;28;20103;-40
2021/05/16 11:51:10;;;;;;;13.25;4.15;;;15.60;91.30;;;;;;5107727;28;20028;-41
2021/05/16 11:53:37;;;;;;;11.85;3.83;;;15.30;92.20;;;;;;5105252;28;20024;-40
2021/05/16 11:56:06;;;;;;;9.30;3.15;;;15.10;93.00;;;;;;5107816;28;20055;-42
2021/05/16 11:58:36;;;;;;;7.55;2.53;;;15.10;93.30;;;;;;5106868;28;20023;-41
2021/05/16 12:01:02;;;;;;;6.60;2.30;;;15.20;92.90;;;;;;5099773;28;20101;-41
2021/05/16 12:03:29;;;;;;;4.78;1.95;;;15.40;92.60;;;;;;5087225;28;20028;-40
2021/05/16 12:06:07;;;;;;;4.78;2.00;;;15.60;92.30;;;;;;5098842;28;20069;-39
2021/05/16 12:08:33;;;;;;;6.28;2.08;;;15.80;92.10;;;;;;5086695;28;20461;-39
2021/05/16 12:11:04;;;;;;;6.95;2.42;;;16.10;91.90;;;;;;5100189;28;20534;-39
2021/05/16 12:13:30;;;;;;;7.30;2.47;;;16.20;91.80;;;;;;5087267;28;20034;-40
2021/05/16 12:16:21;;;;;;;5.93;2.30;;;16.30;91.60;;;;;;5092583;28;20016;-40
2021/05/16 12:18:49;;;;;;;8.27;2.65;;;16.30;91.60;;;;;;5087506;28;20111;-40
2021/05/16 12:21:16;;;;;;;6.65;2.10;;;16.20;91.70;;;;;;5093026;28;20101;-40
2021/05/16 12:24:02;;;;;;;6.68;2.15;;;16.20;91.80;;;;;;5106807;28;20051;-39
2021/05/16 12:26:32;;;;;;;5.88;2.08;;;16.20;91.50;;;;;;5095266;28;20024;-38
2021/05/16 12:28:58;;;;;;;5.38;2.00;;;16.10;91.60;;;;;;5105527;28;20046;-39
2021/05/16 12:31:24;;;;;;;5.55;2.00;;;16.00;91.30;;;;;;5107370;28;20027;-40
2021/05/16 12:33:53;;;;;;;5.32;2.05;;;16.00;90.90;;;;;;5107974;28;20031;-43
2021/05/16 12:36:19;;;;;;;5.88;1.98;;;15.90;91.50;;;;;;5101402;28;20435;-43
2021/05/16 12:38:47;;;;;;;5.95;2.25;;;15.80;91.50;;;;;;5090639;28;20028;-37